createdAt,value
2017-07-17T00:01:39.560Z,77.80
2017-07-17T00:04:07.082Z,77.80
2017-07-17T00:06:34.529Z,77.90
2017-07-17T00:09:01.991Z,77.80
2017-07-17T00:11:29.517Z,77.70
2017-07-17T00:13:57.018Z,77.80
2017-07-17T00:16:24.464Z,78.00
2017-07-17T00:18:52.130Z,78.10
2017-07-17T00:21:19.589Z,78.40
2017-07-17T00:23:47.057Z,78.50
2017-07-17T00:26:14.757Z,78.70
2017-07-17T00:28:42.398Z,78.50
2017-07-17T00:31:09.933Z,78.50
2017-07-17T00:33:37.383Z,78.60
2017-07-17T00:36:05.014Z,78.80
2017-07-17T00:38:32.491Z,78.90
2017-07-17T00:40:59.996Z,78.90
2017-07-17T00:43:27.543Z,79.30
2017-07-17T00:45:55.100Z,79.30
2017-07-17T00:48:22.668Z,79.40
2017-07-17T00:50:50.135Z,79.30
2017-07-17T00:53:17.583Z,79.10
2017-07-17T00:55:45.103Z,79.50
2017-07-17T00:58:12.675Z,80.20
2017-07-17T01:00:40.118Z,80.80
2017-07-17T01:03:07.655Z,81.10
2017-07-17T01:05:35.153Z,81.60
2017-07-17T01:08:02.653Z,81.50
2017-07-17T01:10:30.160Z,81.30
2017-07-17T01:12:57.665Z,82.20
2017-07-17T01:15:25.166Z,81.70
2017-07-17T01:17:52.672Z,81.60
2017-07-17T01:20:20.136Z,81.80
2017-07-17T01:22:47.583Z,82.00
2017-07-17T01:25:15.104Z,82.20
2017-07-17T01:27:42.620Z,82.00
2017-07-17T01:30:10.127Z,82.00
2017-07-17T01:32:37.656Z,82.00
2017-07-17T01:35:05.152Z,81.70
2017-07-17T01:37:32.871Z,81.50
2017-07-17T01:40:00.399Z,81.20
2017-07-17T01:42:27.843Z,81.40
2017-07-17T01:44:55.314Z,81.60
2017-07-17T01:47:23.171Z,81.70
2017-07-17T01:49:50.636Z,82.10
2017-07-17T01:52:18.181Z,82.30
2017-07-17T01:54:45.737Z,82.40
2017-07-17T01:57:13.208Z,82.50
2017-07-17T01:59:40.716Z,82.30
2017-07-17T02:02:08.201Z,82.60
2017-07-17T02:04:35.684Z,82.70
2017-07-17T02:07:03.227Z,82.60
2017-07-17T02:09:30.784Z,82.40
2017-07-17T02:11:58.353Z,82.30
2017-07-17T02:14:25.800Z,82.40
2017-07-17T02:16:53.320Z,82.50
2017-07-17T02:19:20.807Z,82.50
2017-07-17T02:21:48.380Z,82.30
2017-07-17T02:24:15.969Z,82.00
2017-07-17T02:26:43.455Z,81.60
2017-07-17T02:29:10.933Z,81.80
2017-07-17T02:31:38.392Z,81.90
2017-07-17T02:34:05.845Z,82.10
2017-07-17T02:36:33.327Z,82.20
2017-07-17T02:39:00.864Z,81.90
2017-07-17T02:41:28.328Z,82.00
2017-07-17T02:43:55.799Z,82.00
2017-07-17T02:46:23.248Z,82.20
2017-07-17T02:48:50.689Z,82.30
2017-07-17T02:51:18.227Z,82.10
2017-07-17T02:53:45.707Z,81.90
2017-07-17T02:56:13.272Z,82.00
2017-07-17T02:58:40.740Z,81.60
2017-07-17T03:01:08.520Z,81.40
2017-07-17T03:03:35.973Z,81.40
2017-07-17T03:06:03.547Z,81.60
2017-07-17T03:08:31.061Z,81.60
2017-07-17T03:10:58.525Z,81.50
2017-07-17T03:13:26.101Z,81.80
2017-07-17T03:15:53.618Z,81.80
2017-07-17T03:18:21.149Z,81.40
2017-07-17T03:20:48.611Z,81.50
2017-07-17T03:23:16.171Z,81.70
2017-07-17T03:25:43.684Z,81.60
2017-07-17T03:28:11.224Z,81.60
2017-07-17T03:30:38.755Z,81.10
2017-07-17T03:33:06.289Z,81.10
2017-07-17T03:35:34.540Z,81.40
2017-07-17T03:38:02.274Z,81.30
2017-07-17T03:40:29.832Z,82.20
2017-07-17T03:42:57.433Z,83.00
2017-07-17T03:45:25.069Z,83.70
2017-07-17T03:47:52.753Z,85.50
2017-07-17T03:50:20.498Z,86.10
2017-07-17T03:52:48.098Z,87.10
2017-07-17T03:55:15.662Z,87.80
2017-07-17T03:57:43.260Z,87.80
2017-07-17T04:00:10.737Z,88.30
2017-07-17T04:02:38.191Z,89.30
2017-07-17T04:05:05.771Z,89.30
2017-07-17T04:07:33.296Z,89.20
2017-07-17T04:10:00.810Z,88.90
2017-07-17T04:12:29.048Z,89.20
2017-07-17T04:14:57.448Z,89.40
2017-07-17T04:17:25.018Z,88.60
2017-07-17T04:19:52.500Z,89.10
2017-07-17T04:22:20.053Z,88.70
2017-07-17T04:24:48.283Z,89.00
2017-07-17T04:27:16.486Z,89.00
2017-07-17T04:29:44.069Z,89.20
2017-07-17T04:32:11.543Z,89.50
2017-07-17T04:34:39.077Z,89.70
2017-07-17T04:37:06.616Z,90.00
2017-07-17T04:39:34.963Z,90.00
2017-07-17T04:42:04.285Z,90.00
2017-07-17T04:44:31.793Z,89.60
2017-07-17T04:46:59.284Z,89.40
2017-07-17T04:49:26.782Z,89.40
2017-07-17T04:51:55.137Z,89.20
2017-07-17T04:54:23.114Z,89.10
2017-07-17T04:56:50.765Z,89.10
2017-07-17T04:59:18.459Z,89.30
2017-07-17T05:01:47.717Z,89.80
2017-07-17T05:04:15.804Z,89.60
2017-07-17T05:06:44.132Z,89.80
2017-07-17T05:09:11.668Z,89.50
2017-07-17T05:11:39.236Z,89.40
2017-07-17T05:14:06.759Z,89.90
2017-07-17T05:16:34.330Z,89.00
2017-07-17T05:19:01.819Z,88.80
2017-07-17T05:21:29.336Z,88.60
2017-07-17T05:23:56.807Z,88.90
2017-07-17T05:26:25.124Z,89.20
2017-07-17T05:28:52.647Z,88.80
2017-07-17T05:31:21.314Z,88.80
2017-07-17T05:33:48.954Z,88.70
2017-07-17T05:36:16.487Z,88.50
2017-07-17T05:38:43.997Z,88.60
2017-07-17T05:41:11.521Z,88.40
2017-07-17T05:43:39.045Z,89.10
2017-07-17T05:46:07.507Z,89.00
2017-07-17T05:48:35.924Z,89.00
2017-07-17T05:51:03.565Z,88.30
2017-07-17T05:53:31.052Z,88.70
2017-07-17T05:55:58.599Z,89.00
2017-07-17T05:58:26.596Z,87.00
2017-07-17T06:00:54.147Z,86.30
2017-07-17T06:03:21.756Z,87.20
2017-07-17T06:05:49.299Z,86.50
2017-07-17T06:08:21.631Z,86.00
2017-07-17T06:10:49.287Z,86.60
2017-07-17T06:13:16.871Z,86.50
2017-07-17T06:15:44.385Z,86.70
2017-07-17T06:18:11.967Z,85.90
2017-07-17T06:20:39.556Z,86.00
2017-07-17T06:23:07.443Z,85.10
2017-07-17T06:25:35.128Z,85.60
2017-07-17T06:28:02.812Z,86.10
2017-07-17T06:30:31.594Z,85.70
2017-07-17T06:33:03.287Z,85.30
2017-07-17T06:35:30.820Z,86.70
2017-07-17T06:37:58.354Z,83.70
2017-07-17T06:43:56.561Z,84.60
2017-07-17T06:46:24.089Z,85.30
2017-07-17T06:48:51.598Z,84.60
2017-07-17T06:51:19.107Z,84.50
2017-07-17T06:53:46.631Z,85.60
2017-07-17T06:56:14.534Z,85.10
2017-07-17T06:58:42.774Z,84.50
2017-07-17T07:01:10.338Z,85.00
2017-07-17T07:03:37.803Z,84.30
2017-07-17T07:06:05.311Z,84.80
2017-07-17T07:08:33.687Z,85.80
2017-07-17T07:11:01.290Z,85.80
2017-07-17T07:13:28.884Z,85.00
2017-07-17T07:15:56.461Z,84.70
2017-07-17T07:18:24.142Z,84.90
2017-07-17T07:20:51.658Z,84.60
2017-07-17T07:23:19.273Z,84.20
2017-07-17T07:25:46.736Z,84.30
2017-07-17T07:28:14.222Z,84.10
2017-07-17T07:30:41.709Z,82.20
2017-07-17T07:33:09.174Z,82.30
2017-07-17T07:35:36.659Z,81.80
2017-07-17T07:38:04.153Z,81.60
2017-07-17T07:40:31.699Z,81.40
2017-07-17T07:42:59.475Z,81.00
2017-07-17T07:45:26.980Z,81.20
2017-07-17T07:47:54.510Z,80.90
2017-07-17T07:50:21.999Z,81.20
2017-07-17T07:52:49.555Z,80.00
2017-07-17T07:55:17.213Z,81.70
2017-07-17T07:57:44.949Z,81.00
2017-07-17T08:00:12.800Z,81.30
2017-07-17T08:02:40.257Z,81.40
2017-07-17T08:05:07.832Z,82.00
2017-07-17T08:07:35.471Z,79.90
2017-07-17T08:10:03.148Z,80.00
2017-07-17T08:12:30.700Z,80.00
2017-07-17T08:14:58.331Z,79.50
2017-07-17T08:17:25.953Z,80.30
2017-07-17T08:19:53.572Z,80.40
2017-07-17T08:22:21.268Z,79.20
2017-07-17T08:24:49.036Z,78.70
2017-07-17T08:27:16.753Z,76.80
2017-07-17T08:29:44.583Z,76.70
2017-07-17T08:32:14.700Z,76.50
2017-07-17T08:34:42.359Z,75.70
2017-07-17T08:37:09.957Z,73.80
2017-07-17T08:39:38.166Z,74.90
2017-07-17T08:42:07.816Z,76.70
2017-07-17T08:44:36.138Z,77.60
2017-07-17T08:47:03.694Z,77.60
2017-07-17T08:49:31.770Z,77.60
2017-07-17T08:54:34.963Z,77.50
2017-07-17T08:57:03.619Z,78.00
2017-07-17T08:59:31.138Z,78.00
2017-07-17T09:01:58.759Z,76.20
2017-07-17T09:04:26.298Z,75.40
2017-07-17T09:06:54.078Z,74.20
2017-07-17T09:09:22.395Z,73.20
2017-07-17T09:11:50.067Z,69.90
2017-07-17T09:14:17.926Z,71.20
2017-07-17T09:16:46.312Z,69.70
2017-07-17T09:19:14.090Z,69.80
2017-07-17T09:21:41.832Z,69.10
2017-07-17T09:24:09.356Z,69.60
2017-07-17T09:26:36.957Z,70.60
2017-07-17T09:29:04.564Z,71.90
2017-07-17T09:31:32.917Z,71.80
2017-07-17T09:34:03.511Z,71.80
2017-07-17T09:36:31.092Z,71.70
2017-07-17T09:38:58.597Z,69.50
2017-07-17T09:41:27.167Z,64.40
2017-07-17T09:43:54.900Z,64.30
2017-07-17T09:46:22.587Z,62.90
2017-07-17T09:48:50.731Z,60.80
2017-07-17T09:51:19.445Z,59.90
2017-07-17T09:53:48.912Z,61.30
2017-07-17T09:56:16.580Z,60.20
2017-07-17T09:58:44.333Z,59.40
2017-07-17T10:01:12.178Z,59.10
2017-07-17T10:03:39.801Z,59.30
2017-07-17T10:06:07.954Z,56.20
2017-07-17T10:08:37.319Z,56.40
2017-07-17T10:11:05.842Z,56.30
2017-07-17T10:13:33.553Z,55.40
2017-07-17T10:16:02.130Z,54.30
2017-07-17T10:18:29.851Z,54.30
2017-07-17T10:20:57.443Z,51.30
2017-07-17T10:23:25.330Z,50.60
2017-07-17T10:25:54.242Z,49.80
2017-07-17T10:28:22.241Z,50.50
2017-07-17T10:30:49.749Z,48.30
2017-07-17T10:33:17.306Z,48.30
2017-07-17T10:35:45.110Z,46.90
2017-07-17T10:38:12.836Z,46.70
2017-07-17T10:40:40.624Z,45.00
2017-07-17T10:43:08.335Z,42.00
2017-07-17T10:45:35.838Z,39.80
2017-07-17T10:48:03.461Z,39.60
2017-07-17T10:50:31.018Z,38.30
2017-07-17T10:52:58.608Z,38.00
2017-07-17T10:55:26.265Z,38.30
2017-07-17T10:57:53.969Z,35.80
2017-07-17T11:00:21.891Z,35.50
2017-07-17T11:02:49.701Z,35.50
2017-07-17T11:05:17.495Z,36.20
2017-07-17T11:07:45.100Z,37.60
2017-07-17T11:10:12.652Z,38.90
2017-07-17T11:12:40.131Z,40.60
2017-07-17T11:15:08.214Z,41.10
2017-07-17T11:17:37.026Z,41.90
2017-07-17T11:20:05.015Z,44.00
2017-07-17T11:22:35.253Z,47.10
2017-07-17T11:25:02.863Z,47.00
2017-07-17T11:27:30.417Z,46.50
2017-07-17T11:30:00.204Z,47.50
2017-07-17T11:32:27.810Z,48.20
2017-07-17T11:34:57.198Z,47.60
2017-07-17T11:37:24.836Z,48.30
2017-07-17T11:39:52.401Z,48.50
2017-07-17T11:42:19.967Z,46.60
2017-07-17T11:44:47.486Z,46.90
2017-07-17T11:59:58.207Z,46.30
2017-07-17T12:02:27.263Z,46.10
2017-07-17T12:07:22.422Z,48.10
2017-07-17T12:09:49.910Z,46.70
2017-07-17T12:12:19.959Z,47.80
2017-07-17T12:14:47.421Z,46.50
2017-07-17T12:17:15.515Z,46.20
2017-07-17T12:19:43.171Z,47.00
2017-07-17T12:22:10.695Z,45.70
2017-07-17T12:24:38.741Z,45.50
2017-07-17T12:27:07.074Z,46.20
2017-07-17T12:29:34.516Z,46.20
2017-07-17T12:32:02.071Z,46.10
2017-07-17T12:34:29.645Z,44.90
2017-07-17T12:36:57.277Z,45.10
2017-07-17T12:39:24.773Z,45.10
2017-07-17T12:41:52.341Z,45.20
2017-07-17T12:44:20.721Z,44.60
2017-07-17T12:46:48.220Z,44.50
2017-07-17T12:49:15.790Z,44.60
2017-07-17T12:51:43.220Z,44.60
2017-07-17T12:54:11.610Z,45.00
2017-07-17T12:56:39.108Z,44.60
2017-07-17T12:59:06.755Z,45.00
2017-07-17T13:01:36.072Z,44.30
2017-07-17T13:04:04.952Z,43.40
2017-07-17T13:06:37.964Z,43.10
2017-07-17T13:09:06.939Z,42.40
2017-07-17T13:11:35.573Z,42.40
2017-07-17T13:14:03.710Z,42.30
2017-07-17T13:16:31.611Z,42.70
2017-07-17T13:19:00.277Z,42.60
2017-07-17T13:21:30.081Z,43.30
2017-07-17T13:23:57.808Z,41.50
2017-07-17T13:26:25.372Z,41.60
2017-07-17T13:28:53.324Z,41.20
2017-07-17T13:31:21.532Z,40.80
2017-07-17T13:33:49.251Z,41.00
2017-07-17T13:36:18.506Z,40.60
2017-07-17T13:38:46.044Z,41.90
2017-07-17T13:41:15.716Z,42.60
2017-07-17T13:43:43.692Z,40.90
2017-07-17T13:46:12.227Z,40.80
2017-07-17T13:48:40.505Z,40.80
2017-07-17T13:51:08.144Z,41.80
2017-07-17T13:53:35.957Z,42.20
2017-07-17T13:56:04.432Z,42.30
2017-07-17T13:58:32.055Z,42.00
2017-07-17T14:00:59.552Z,40.70
2017-07-17T14:03:27.337Z,40.50
2017-07-17T14:05:54.987Z,41.10
2017-07-17T14:08:22.542Z,41.20
2017-07-17T14:10:51.419Z,41.10
2017-07-17T14:13:19.219Z,40.50
2017-07-17T14:15:47.082Z,39.80
2017-07-17T14:18:14.826Z,40.40
2017-07-17T14:20:42.344Z,40.80
2017-07-17T14:23:09.897Z,40.60
2017-07-17T14:25:37.535Z,40.20
2017-07-17T14:30:39.961Z,40.40
2017-07-17T14:33:07.488Z,40.10
2017-07-17T14:35:35.760Z,40.60
2017-07-17T14:38:03.389Z,40.60
2017-07-17T14:40:31.145Z,41.10
2017-07-17T14:42:59.934Z,42.30
2017-07-17T14:45:27.622Z,42.10
2017-07-17T14:47:55.979Z,42.00
2017-07-17T14:50:24.549Z,41.30
2017-07-17T14:52:53.235Z,41.10
2017-07-17T14:55:20.707Z,40.70
2017-07-17T14:57:48.488Z,41.00
2017-07-17T15:00:17.238Z,40.50
2017-07-17T15:02:44.812Z,41.20
2017-07-17T15:05:12.780Z,41.30
2017-07-17T15:07:40.808Z,41.30
2017-07-17T15:10:09.164Z,40.40
2017-07-17T15:12:38.006Z,41.20
2017-07-17T15:15:07.540Z,40.80
2017-07-17T15:17:35.280Z,40.30
2017-07-17T15:20:04.091Z,40.00
2017-07-17T15:22:32.836Z,40.40
2017-07-17T15:25:01.369Z,40.90
2017-07-17T15:30:14.206Z,40.20
2017-07-17T15:32:42.204Z,39.80
2017-07-17T15:35:09.905Z,39.90
2017-07-17T15:37:38.489Z,39.80
2017-07-17T15:40:07.701Z,39.70
2017-07-17T15:42:35.459Z,40.20
2017-07-17T15:45:03.742Z,39.20
2017-07-17T15:47:32.326Z,40.00
2017-07-17T15:50:00.842Z,39.10
2017-07-17T15:52:28.612Z,39.50
2017-07-17T15:57:36.387Z,38.90
2017-07-17T16:00:04.277Z,39.10
2017-07-17T16:02:33.401Z,38.90
2017-07-17T16:05:02.293Z,38.00
2017-07-17T16:07:32.094Z,38.00
2017-07-17T16:10:02.472Z,38.50
2017-07-17T16:12:31.644Z,38.50
2017-07-17T16:15:01.533Z,38.90
2017-07-17T16:20:13.653Z,39.00
2017-07-17T16:22:54.073Z,38.60
2017-07-17T16:25:22.070Z,38.90
2017-07-17T16:27:50.489Z,37.60
2017-07-17T16:30:18.847Z,37.80
2017-07-17T16:32:47.382Z,38.50
2017-07-17T16:35:15.542Z,38.80
2017-07-17T16:37:46.710Z,38.60
2017-07-17T16:40:14.591Z,38.70
2017-07-17T16:42:42.132Z,38.80
2017-07-17T16:45:09.684Z,37.90
2017-07-17T16:47:37.473Z,38.60
2017-07-17T16:50:05.149Z,38.30
2017-07-17T16:52:32.868Z,39.30
2017-07-17T16:55:01.627Z,39.70
2017-07-17T16:57:29.179Z,39.10
2017-07-17T17:00:00.563Z,39.40
2017-07-17T17:02:28.097Z,38.70
2017-07-17T17:04:55.693Z,39.00
2017-07-17T17:07:24.190Z,39.40
2017-07-17T17:09:52.727Z,38.90
2017-07-17T17:12:21.474Z,38.60
2017-07-17T17:14:49.081Z,39.00
2017-07-17T17:17:18.027Z,39.80
2017-07-17T17:19:47.153Z,39.20
2017-07-17T17:22:14.980Z,39.20
2017-07-17T17:24:45.515Z,38.60
2017-07-17T17:27:13.561Z,38.00
2017-07-17T17:29:46.971Z,39.00
2017-07-17T17:32:14.528Z,39.10
2017-07-17T17:34:42.268Z,38.70
2017-07-17T17:37:11.129Z,38.30
2017-07-17T17:39:40.185Z,38.50
2017-07-17T17:42:08.765Z,37.60
2017-07-17T17:44:38.165Z,38.00
2017-07-17T17:47:06.232Z,38.10
2017-07-17T17:49:33.845Z,38.10
2017-07-17T17:52:02.493Z,37.70
2017-07-17T17:54:30.301Z,37.80
2017-07-17T17:56:57.853Z,36.40
2017-07-17T17:59:25.389Z,36.80
2017-07-17T18:01:56.360Z,37.00
2017-07-17T18:07:04.783Z,38.60
2017-07-17T18:09:32.546Z,38.60
2017-07-17T18:12:03.832Z,39.50
2017-07-17T18:14:31.903Z,40.00
2017-07-17T18:16:59.406Z,40.80
2017-07-17T18:19:28.177Z,41.10
2017-07-17T18:21:55.806Z,41.20
2017-07-17T18:24:23.490Z,41.50
2017-07-17T18:26:51.599Z,41.60
2017-07-17T18:29:20.801Z,41.80
2017-07-17T18:31:48.345Z,41.70
2017-07-17T18:34:16.061Z,41.70
2017-07-17T18:36:43.556Z,41.70
2017-07-17T18:39:11.032Z,41.60
2017-07-17T18:41:39.599Z,41.60
2017-07-17T18:44:07.128Z,41.60
2017-07-17T18:46:34.804Z,41.70
2017-07-17T18:49:02.442Z,41.10
2017-07-17T18:51:30.186Z,41.60
2017-07-17T18:53:57.709Z,41.90
2017-07-17T18:56:25.228Z,42.10
2017-07-17T18:58:52.734Z,42.40
2017-07-17T19:01:21.168Z,43.30
2017-07-17T19:03:48.896Z,43.30
2017-07-17T19:06:16.508Z,43.10
2017-07-17T19:08:44.001Z,43.80
2017-07-17T19:11:11.567Z,43.40
2017-07-17T19:13:39.243Z,43.60
2017-07-17T19:16:07.058Z,44.00
2017-07-17T19:18:34.540Z,44.50
2017-07-17T19:21:02.015Z,44.70
2017-07-17T19:23:29.515Z,45.10
2017-07-17T19:25:58.104Z,45.40
2017-07-17T19:28:25.621Z,45.70
2017-07-17T19:30:53.169Z,46.20
2017-07-17T19:33:21.611Z,46.80
2017-07-17T19:35:49.198Z,46.70
2017-07-17T19:38:16.905Z,46.90
2017-07-17T19:40:44.369Z,47.10
2017-07-17T19:43:12.239Z,47.00
2017-07-17T19:45:39.746Z,46.90
2017-07-17T19:48:07.450Z,47.10
2017-07-17T19:50:35.015Z,47.30
2017-07-17T19:53:02.493Z,47.30
2017-07-17T19:55:30.243Z,47.40
2017-07-17T19:57:58.476Z,47.70
2017-07-17T20:00:26.144Z,48.00
2017-07-17T20:02:54.918Z,48.00
2017-07-17T20:05:23.386Z,48.30
2017-07-17T20:07:51.064Z,48.60
2017-07-17T20:10:18.600Z,49.10
2017-07-17T20:12:46.094Z,49.50
2017-07-17T20:15:15.541Z,49.60
2017-07-17T20:17:43.264Z,53.50
2017-07-17T20:20:11.107Z,50.90
2017-07-17T20:22:38.907Z,52.40
2017-07-17T20:25:06.393Z,51.00
2017-07-17T20:30:02.929Z,51.90
2017-07-17T20:32:30.674Z,51.10
2017-07-17T20:34:58.492Z,51.90
2017-07-17T20:37:27.243Z,52.60
2017-07-17T20:39:55.526Z,53.90
2017-07-17T20:42:23.367Z,55.30
2017-07-17T20:44:51.767Z,53.30
2017-07-17T20:47:19.393Z,52.70
2017-07-17T20:49:48.162Z,52.50
2017-07-17T20:52:15.679Z,52.90
2017-07-17T20:54:45.159Z,53.30
2017-07-17T20:57:12.883Z,53.10
2017-07-17T20:59:41.450Z,54.80
2017-07-17T21:02:08.928Z,54.20
2017-07-17T21:04:36.412Z,53.40
2017-07-17T21:07:04.309Z,53.10
2017-07-17T21:09:31.864Z,53.90
2017-07-17T21:11:59.328Z,54.10
2017-07-17T21:14:27.690Z,54.00
2017-07-17T21:16:56.197Z,54.60
2017-07-17T21:19:23.915Z,54.50
2017-07-17T21:21:52.857Z,54.40
2017-07-17T21:24:21.282Z,55.30
2017-07-17T21:26:49.055Z,54.50
2017-07-17T21:29:16.897Z,54.20
2017-07-17T21:31:44.905Z,55.10
2017-07-17T21:34:14.477Z,55.00
2017-07-17T21:36:43.107Z,55.30
2017-07-17T21:39:11.365Z,55.30
2017-07-17T21:41:39.223Z,55.10
2017-07-17T21:44:07.552Z,56.00
2017-07-17T21:46:35.123Z,55.90
2017-07-17T21:49:02.716Z,56.20
2017-07-17T21:51:30.247Z,55.80
2017-07-17T21:53:57.872Z,55.50
2017-07-17T21:56:25.637Z,56.40
2017-07-17T21:58:53.215Z,56.60
2017-07-17T22:01:20.729Z,56.30
2017-07-17T22:03:48.180Z,57.10
2017-07-17T22:06:16.573Z,56.80
2017-07-17T22:08:44.072Z,57.10
2017-07-17T22:11:11.563Z,56.80
2017-07-17T22:13:39.075Z,57.00
2017-07-17T22:16:07.610Z,57.30
2017-07-17T22:18:35.273Z,57.40
2017-07-17T22:21:02.787Z,57.40
2017-07-17T22:23:35.255Z,57.50
2017-07-17T22:26:04.062Z,57.70
2017-07-17T22:28:35.223Z,58.20
2017-07-17T22:31:03.357Z,58.00
2017-07-17T22:33:30.848Z,58.10
2017-07-17T22:35:58.580Z,58.20
2017-07-17T22:38:26.048Z,58.90
2017-07-17T22:40:53.593Z,59.20
2017-07-17T22:43:21.072Z,58.70
2017-07-17T22:45:48.535Z,59.20
2017-07-17T22:48:15.985Z,59.10
2017-07-17T22:50:43.505Z,59.30
2017-07-17T22:53:10.995Z,59.60
2017-07-17T22:55:38.501Z,59.80
2017-07-17T22:58:06.637Z,59.80
2017-07-17T23:00:34.170Z,60.70
2017-07-17T23:03:01.647Z,60.00
2017-07-17T23:05:29.969Z,61.10
2017-07-17T23:07:57.594Z,60.60
2017-07-17T23:10:25.142Z,61.00
2017-07-17T23:12:52.615Z,61.40
2017-07-17T23:15:20.148Z,62.00
2017-07-17T23:17:47.592Z,61.90
2017-07-17T23:20:15.140Z,61.70
2017-07-17T23:22:42.707Z,61.90
2017-07-17T23:25:10.173Z,62.40
2017-07-17T23:27:37.677Z,62.30
2017-07-17T23:30:05.269Z,62.40
2017-07-17T23:32:32.779Z,62.30
2017-07-17T23:35:00.329Z,62.80
2017-07-17T23:37:27.939Z,63.60
2017-07-17T23:39:55.384Z,63.50
2017-07-17T23:42:22.852Z,63.40
2017-07-17T23:44:50.752Z,63.60
2017-07-17T23:47:18.265Z,63.30
2017-07-17T23:49:48.619Z,64.00
2017-07-17T23:52:16.100Z,64.00
2017-07-17T23:54:43.600Z,64.20
2017-07-17T23:57:12.219Z,64.60
2017-07-17T23:59:39.966Z,64.90
